Time;durP1;ratioP1;P1;durP2;ratioP2;P2;SDS_P1;SDS_P2;PMS_P1;PMS_P2;Temp;Humidity;BMP_temperature;BMP_pressure;BME280_temperature;BME280_humidity;BME280_pressure;Samples;Min_cycle;Max_cycle;Signal;HPM_P1;HPM_P2
2024/02/01 00:00:24;;;;;;;37.95;23.80;;;;;;;0.25;100.00;97650.09;5060674;28;20425;-67
2024/02/01 00:02:49;;;;;;;33.78;23.45;;;;;;;0.19;100.00;97652.78;5070679;28;20032;-67
2024/02/01 00:05:15;;;;;;;36.17;23.75;;;;;;;0.18;100.00;97651.06;5069237;28;20024;-67
2024/02/01 00:07:40;;;;;;;38.83;24.05;;;;;;;0.17;100.00;97645.06;5067630;28;20084;-68
2024/02/01 00:10:06;;;;;;;31.63;20.45;;;;;;;0.13;100.00;97653.78;5072355;28;20040;-67
2024/02/01 00:12:32;;;;;;;26.38;16.83;;;;;;;0.10;100.00;97653.81;5069012;28;20092;-67
2024/02/01 00:14:57;;;;;;;25.40;15.95;;;;;;;0.09;100.00;97655.56;5072333;28;20551;-67
2024/02/01 00:17:23;;;;;;;25.60;14.52;;;;;;;0.17;100.00;97659.72;5068511;28;20037;-67
2024/02/01 00:19:48;;;;;;;19.27;14.52;;;;;;;0.13;100.00;97656.38;5068471;28;20432;-67
2024/02/01 00:22:14;;;;;;;17.92;13.93;;;;;;;0.07;100.00;97672.88;5067993;28;20051;-67
2024/02/01 00:24:40;;;;;;;22.27;14.95;;;;;;;-0.03;100.00;97669.59;5065699;28;20112;-67
2024/02/01 00:27:05;;;;;;;19.52;14.63;;;;;;;-0.03;100.00;97660.94;5070865;28;20048;-67
2024/02/01 00:29:30;;;;;;;17.35;13.60;;;;;;;0.03;100.00;97668.63;5074524;28;20108;-67
2024/02/01 00:31:56;;;;;;;14.77;11.57;;;;;;;0.07;100.00;97666.81;5067842;28;20379;-67
2024/02/01 00:34:21;;;;;;;14.43;10.50;;;;;;;0.07;100.00;97657.31;5072445;28;20035;-68
2024/02/01 00:36:47;;;;;;;13.52;10.20;;;;;;;0.12;100.00;97654.66;5061738;28;20033;-67
2024/02/01 00:39:12;;;;;;;13.35;10.80;;;;;;;0.12;100.00;97654.66;5065102;28;20063;-67
2024/02/01 00:41:38;;;;;;;17.20;11.32;;;;;;;0.07;100.00;97646.97;5068048;28;20120;-67
2024/02/01 00:44:04;;;;;;;15.55;11.63;;;;;;;0.01;100.00;97647.09;5070641;28;20480;-67
2024/02/01 00:46:29;;;;;;;12.77;11.02;;;;;;;0.00;100.00;97645.38;5067729;28;20560;-67
2024/02/01 00:48:54;;;;;;;12.63;10.10;;;;;;;0.03;100.00;97655.69;5065947;28;20028;-67
2024/02/01 00:51:20;;;;;;;12.63;10.00;;;;;;;0.06;100.00;97649.56;5071150;28;20449;-67
2024/02/01 00:53:45;;;;;;;11.38;10.18;;;;;;;0.09;100.00;97637.41;5071567;28;20036;-67
2024/02/01 00:56:11;;;;;;;13.63;10.02;;;;;;;0.06;100.00;97634.91;5066209;28;20032;-67
2024/02/01 00:58:36;;;;;;;16.95;10.80;;;;;;;0.00;100.00;97627.25;5063209;28;20039;-67
2024/02/01 01:01:01;;;;;;;12.02;9.32;;;;;;;-0.02;100.00;97626.41;5070290;28;20067;-67
2024/02/01 01:03:27;;;;;;;12.20;10.13;;;;;;;-0.04;100.00;97612.63;5072042;28;20033;-67
2024/02/01 01:05:53;;;;;;;12.13;9.50;;;;;;;-0.06;100.00;97611.81;5067402;28;20574;-67
2024/02/01 01:08:18;;;;;;;13.80;9.32;;;;;;;-0.03;100.00;97609.16;5067733;28;20468;-67
2024/02/01 01:10:43;;;;;;;10.63;9.23;;;;;;;-0.03;100.00;97601.38;5071423;28;20035;-67
2024/02/01 01:13:10;;;;;;;10.32;9.15;;;;;;;-0.03;100.00;97598.78;5069742;28;20067;-67
2024/02/01 01:15:35;;;;;;;10.48;9.38;;;;;;;-0.11;100.00;97598.97;5070224;28;20042;-67
2024/02/01 01:18:00;;;;;;;11.93;8.50;;;;;;;-0.12;100.00;97597.22;5062199;28;20611;-67
2024/02/01 01:20:26;;;;;;;11.63;8.52;;;;;;;-0.13;100.00;97598.13;5073039;28;20033;-67
2024/02/01 01:22:51;;;;;;;14.60;8.23;;;;;;;-0.12;100.00;97592.06;5070818;28;20052;-67
2024/02/01 01:25:17;;;;;;;15.20;8.75;;;;;;;-0.12;100.00;97597.22;5070475;28;20080;-67
2024/02/01 01:27:42;;;;;;;12.15;8.60;;;;;;;-0.16;100.00;97599.03;5064567;28;20032;-67
2024/02/01 01:30:08;;;;;;;11.30;7.90;;;;;;;-0.17;100.00;97599.06;5067115;28;20032;-67
2024/02/01 01:32:33;;;;;;;15.88;7.93;;;;;;;-0.16;100.00;97598.19;5068844;28;20046;-67
2024/02/01 01:35:00;;;;;;;8.75;7.45;;;;;;;-0.18;100.00;97603.41;5071577;28;20050;-68
2024/02/01 01:37:26;;;;;;;17.75;9.52;;;;;;;-0.16;100.00;97608.53;5070031;28;20021;-68
2024/02/01 01:39:51;;;;;;;15.13;9.20;;;;;;;-0.18;100.00;97610.31;5071382;28;20401;-67
2024/02/01 01:42:17;;;;;;;14.95;8.55;;;;;;;-0.19;100.00;97608.59;5068086;28;20041;-67
2024/02/01 01:44:42;;;;;;;9.90;8.18;;;;;;;-0.16;100.00;97616.31;5072295;28;20054;-67
2024/02/01 01:47:07;;;;;;;11.05;8.13;;;;;;;-0.15;100.00;97616.28;5064388;28;20039;-67
2024/02/01 01:49:34;;;;;;;10.93;8.30;;;;;;;-0.15;100.00;97605.06;5071654;28;20028;-67
2024/02/01 01:51:59;;;;;;;11.07;8.23;;;;;;;-0.18;100.00;97602.53;5069957;28;20021;-67
2024/02/01 01:54:26;;;;;;;12.68;7.90;;;;;;;-0.23;100.00;97609.53;5075762;28;20032;-67
2024/02/01 01:56:52;;;;;;;11.95;9.48;;;;;;;-0.28;100.00;97606.19;5075106;28;20032;-67
2024/02/01 01:59:21;;;;;;;9.18;7.22;;;;;;;-0.34;100.00;97596.78;5072626;28;20047;-67
2024/02/01 02:01:47;;;;;;;10.93;7.90;;;;;;;-0.38;100.00;97602.91;5077228;28;20058;-67
2024/02/01 02:04:16;;;;;;;12.65;8.40;;;;;;;-0.42;100.00;97598.69;5075202;28;20082;-67
2024/02/01 02:06:44;;;;;;;15.75;8.23;;;;;;;-0.40;100.00;97600.34;5065682;28;20024;-67
2024/02/01 02:09:14;;;;;;;12.60;8.45;;;;;;;-0.44;100.00;97596.97;5070216;28;20025;-67
2024/02/01 02:11:44;;;;;;;16.58;8.45;;;;;;;-0.43;100.00;97602.97;5075151;28;20016;-67
2024/02/01 02:14:14;;;;;;;15.55;7.97;;;;;;;-0.43;100.00;97595.22;5072626;28;20111;-67
2024/02/01 02:16:39;;;;;;;10.73;8.20;;;;;;;-0.44;100.00;97585.75;5073981;28;20035;-67
2024/02/01 02:19:11;;;;;;;12.25;7.80;;;;;;;-0.47;100.00;97584.06;5070969;28;20526;-67
2024/02/01 02:22:00;;;;;;;12.43;8.82;;;;;;;-0.44;100.00;97586.63;5071812;28;20021;-67
2024/02/01 02:24:26;;;;;;;16.52;11.18;;;;;;;-0.39;100.00;97590.84;5069758;28;20128;-67
2024/02/01 02:26:51;;;;;;;13.57;9.13;;;;;;;-0.37;100.00;97592.50;5068606;28;20068;-67
2024/02/01 02:29:17;;;;;;;16.20;8.40;;;;;;;-0.32;100.00;97589.84;5076038;28;20021;-67
2024/02/01 02:31:43;;;;;;;9.35;7.68;;;;;;;-0.26;100.00;97596.66;5069401;28;20056;-67
2024/02/01 02:34:09;;;;;;;9.25;7.80;;;;;;;-0.29;100.00;97600.13;5073642;28;20017;-67
2024/02/01 02:36:34;;;;;;;11.32;9.05;;;;;;;-0.35;100.00;97605.44;5075021;28;20155;-67
2024/02/01 02:39:00;;;;;;;17.02;8.40;;;;;;;-0.36;100.00;97624.44;5072911;28;20027;-68
2024/02/01 02:41:26;;;;;;;16.00;7.65;;;;;;;-0.39;100.00;97624.50;5062929;28;20160;-67
2024/02/01 02:43:52;;;;;;;15.93;8.05;;;;;;;-0.37;100.00;97638.25;5071547;28;20059;-67
2024/02/01 02:46:17;;;;;;;14.38;7.80;;;;;;;-0.38;100.00;97646.91;5067755;28;20050;-67
2024/02/01 02:48:43;;;;;;;10.93;7.75;;;;;;;-0.40;100.00;97648.69;5068086;28;20029;-67
2024/02/01 02:51:08;;;;;;;12.52;7.53;;;;;;;-0.40;100.00;97644.34;5073884;28;20112;-67
2024/02/01 02:53:34;;;;;;;13.05;7.50;;;;;;;-0.40;100.00;97633.97;5070317;28;20085;-67
2024/02/01 02:55:59;;;;;;;33.45;22.52;;;;;;;-0.39;100.00;97651.22;5072261;28;20032;-67
2024/02/01 02:58:25;;;;;;;37.53;22.30;;;;;;;-0.40;100.00;97651.25;5067395;28;20023;-67
2024/02/01 03:00:50;;;;;;;21.75;15.38;;;;;;;-0.42;100.00;97640.91;5072076;28;20028;-67
2024/02/01 03:03:16;;;;;;;33.75;21.77;;;;;;;-0.41;100.00;97632.28;5072260;28;20059;-67
2024/02/01 03:05:41;;;;;;;24.30;15.63;;;;;;;-0.55;100.00;97636.81;5072657;28;20025;-67
2024/02/01 03:08:09;;;;;;;19.35;13.07;;;;;;;-0.55;100.00;97644.59;5067860;28;20021;-67
2024/02/01 03:10:38;;;;;;;14.77;9.25;;;;;;;-0.53;100.00;97646.28;5064181;28;20025;-67
2024/02/01 03:13:09;;;;;;;14.93;10.32;;;;;;;-0.50;100.00;97647.97;5071852;28;20051;-67
2024/02/01 03:15:38;;;;;;;18.75;10.98;;;;;;;-0.47;100.00;97642.75;5067053;28;20033;-67
2024/02/01 03:18:03;;;;;;;13.85;9.52;;;;;;;-0.59;100.00;97639.47;5067220;28;20074;-67
2024/02/01 03:20:29;;;;;;;17.38;9.13;;;;;;;-0.59;100.00;97633.44;5070024;28;20489;-67
2024/02/01 03:22:55;;;;;;;11.40;8.73;;;;;;;-0.56;100.00;97627.34;5072460;28;20524;-67
2024/02/01 03:25:28;;;;;;;11.10;8.63;;;;;;;-0.49;100.00;97632.41;5066252;28;20025;-67
2024/02/01 03:28:00;;;;;;;12.57;8.48;;;;;;;-0.48;100.00;97625.50;5072362;28;20079;-68
2024/02/01 03:30:27;;;;;;;10.52;7.38;;;;;;;-0.35;100.00;97647.69;5063711;28;20013;-67
2024/02/01 03:32:52;;;;;;;13.15;7.75;;;;;;;-0.36;100.00;97643.41;5072188;28;20041;-67
2024/02/01 03:35:17;;;;;;;10.68;7.75;;;;;;;-0.48;100.00;97649.63;5070425;28;20025;-67
2024/02/01 03:37:43;;;;;;;17.80;7.15;;;;;;;-0.51;100.00;97647.09;5073548;28;20043;-67
2024/02/01 03:40:09;;;;;;;13.13;5.93;;;;;;;-0.46;100.00;97649.63;5065815;28;20563;-67
2024/02/01 03:42:35;;;;;;;7.20;4.95;;;;;;;-0.39;100.00;97651.22;5004898;28;1977473;-67
2024/02/01 03:45:04;;;;;;;8.23;4.90;;;;;;;-0.24;100.00;97667.38;5067530;28;20035;-67
2024/02/01 03:47:30;;;;;;;5.78;4.45;;;;;;;-0.13;100.00;97672.38;5067135;28;20059;-67
2024/02/01 03:49:55;;;;;;;10.20;5.47;;;;;;;-0.02;100.00;97679.06;5070294;28;20401;-67
2024/02/01 03:52:21;;;;;;;10.70;6.35;;;;;;;0.09;100.00;97665.03;5075639;28;20400;-67
2024/02/01 03:54:47;;;;;;;7.05;5.45;;;;;;;0.14;100.00;97663.25;5067474;28;20057;-67
2024/02/01 03:57:15;;;;;;;9.48;5.72;;;;;;;0.19;100.00;97678.69;5072753;28;20117;-68
2024/02/01 03:59:42;;;;;;;6.63;5.22;;;;;;;0.13;100.00;97683.09;5070200;28;20071;-67
2024/02/01 04:02:14;;;;;;;7.18;6.07;;;;;;;0.07;100.00;97690.13;5072186;28;20242;-67
2024/02/01 04:04:45;;;;;;;9.65;6.13;;;;;;;0.07;100.00;97700.47;5068960;28;20035;-67
2024/02/01 04:07:15;;;;;;;8.13;6.20;;;;;;;0.08;100.00;97703.06;5070317;28;20115;-67
2024/02/01 04:09:47;;;;;;;6.85;5.32;;;;;;;0.08;100.00;97697.00;5072005;28;20111;-67
2024/02/01 04:12:13;;;;;;;10.02;5.38;;;;;;;0.06;100.00;97699.66;5067000;28;20049;-67
2024/02/01 04:14:38;;;;;;;8.60;5.55;;;;;;;0.03;100.00;97689.34;5072783;28;20509;-67
2024/02/01 04:17:05;;;;;;;5.47;4.97;;;;;;;0.03;100.00;97685.88;5068593;28;20485;-67
2024/02/01 04:19:31;;;;;;;6.15;4.82;;;;;;;0.08;100.00;97681.47;5069308;28;20076;-67
2024/02/01 04:21:56;;;;;;;8.95;5.78;;;;;;;0.09;100.00;97689.22;5072557;28;20445;-67
2024/02/01 04:24:21;;;;;;;6.68;5.95;;;;;;;0.04;100.00;97696.22;5063512;28;20025;-67
2024/02/01 04:26:47;;;;;;;8.60;5.80;;;;;;;0.02;100.00;97686.78;5070183;28;20729;-67
2024/02/01 04:29:13;;;;;;;8.38;7.05;;;;;;;0.03;100.00;97685.88;5068381;28;20044;-67
2024/02/01 04:31:39;;;;;;;7.47;6.40;;;;;;;0.05;100.00;97684.13;5061174;28;20031;-67
2024/02/01 04:34:04;;;;;;;10.88;6.13;;;;;;;-0.04;100.00;97698.09;5062649;28;20119;-67
2024/02/01 04:36:30;;;;;;;7.97;6.45;;;;;;;-0.02;100.00;97692.00;5070032;28;20108;-67
2024/02/01 04:38:55;;;;;;;6.55;5.85;;;;;;;0.05;100.00;97697.06;5070187;28;20108;-67
2024/02/01 04:41:21;;;;;;;7.35;5.10;;;;;;;0.11;100.00;97707.31;5065667;28;20023;-67
2024/02/01 04:43:47;;;;;;;7.50;5.10;;;;;;;0.24;100.00;97710.56;5071224;28;20036;-67
2024/02/01 04:46:12;;;;;;;8.15;4.97;;;;;;;0.27;100.00;97700.97;5071648;28;20032;-68
2024/02/01 04:48:38;;;;;;;9.20;5.00;;;;;;;0.26;100.00;97707.03;5072961;28;20023;-67
2024/02/01 04:51:03;;;;;;;9.77;6.05;;;;;;;0.30;100.00;97701.81;5072458;28;20210;-67
2024/02/01 04:53:29;;;;;;;12.60;10.07;;;;;;;0.30;100.00;97696.63;5071970;28;20024;-67
2024/02/01 04:55:55;;;;;;;17.25;15.55;;;;;;;0.31;100.00;97699.19;5067454;28;20166;-67
2024/02/01 04:58:20;;;;;;;17.70;14.40;;;;;;;0.30;100.00;97706.97;5071849;28;20029;-67
2024/02/01 05:00:52;;;;;;;12.20;9.20;;;;;;;0.39;100.00;97701.66;5071237;28;20394;-67
2024/02/01 05:03:17;;;;;;;11.30;9.95;;;;;;;0.39;100.00;97705.06;5072962;28;20052;-67
2024/02/01 05:05:47;;;;;;;33.33;20.13;;;;;;;0.42;100.00;97706.75;5070582;28;20048;-67
2024/02/01 05:08:15;;;;;;;32.83;19.38;;;;;;;0.41;100.00;97697.28;5073233;28;20449;-67
2024/02/01 05:10:44;;;;;;;30.55;20.23;;;;;;;0.44;100.00;97697.22;5070988;28;20039;-67
2024/02/01 05:13:12;;;;;;;47.08;29.80;;;;;;;0.43;100.00;97698.94;5072509;28;20024;-67
2024/02/01 05:15:39;;;;;;;42.50;31.33;;;;;;;0.41;100.00;97702.47;5068096;28;20493;-67
2024/02/01 05:18:05;;;;;;;22.15;12.05;;;;;;;0.45;100.00;97711.88;5069432;28;20085;-67
2024/02/01 05:20:30;;;;;;;20.80;16.90;;;;;;;0.51;100.00;97697.94;5070046;28;20670;-67
2024/02/01 05:22:56;;;;;;;30.80;20.75;;;;;;;0.48;100.00;97703.19;5071374;28;20047;-67
2024/02/01 05:25:23;;;;;;;24.85;18.10;;;;;;;0.45;100.00;97700.69;5071816;28;20081;-67
2024/02/01 05:27:52;;;;;;;19.42;12.60;;;;;;;0.39;100.00;97701.66;5072207;28;20481;-67
2024/02/01 05:30:22;;;;;;;13.18;10.30;;;;;;;0.38;100.00;97705.13;5067379;28;20074;-67
2024/02/01 05:32:51;;;;;;;13.23;11.48;;;;;;;0.40;100.00;97704.19;5066990;28;20073;-67
2024/02/01 05:35:24;;;;;;;15.00;9.45;;;;;;;0.46;100.00;97700.63;5064520;28;20472;-67
2024/02/01 05:37:50;;;;;;;19.08;10.02;;;;;;;0.46;100.00;97695.44;5068672;28;20033;-67
2024/02/01 05:40:16;;;;;;;12.10;9.10;;;;;;;0.48;100.00;97687.66;5066361;28;20026;-67
2024/02/01 05:42:48;;;;;;;17.40;9.00;;;;;;;0.46;100.00;97672.13;5068408;28;20044;-68
2024/02/01 05:45:15;;;;;;;11.10;9.70;;;;;;;0.45;100.00;97659.22;5067205;28;20021;-68
2024/02/01 05:47:41;;;;;;;19.05;9.80;;;;;;;0.42;100.00;97649.75;5072914;28;20754;-68
2024/02/01 05:50:09;;;;;;;9.73;8.18;;;;;;;0.43;100.00;97646.28;5066626;28;20047;-67
2024/02/01 05:52:38;;;;;;;11.45;9.60;;;;;;;0.42;100.00;97623.81;5062923;28;20104;-68
2024/02/01 05:55:05;;;;;;;21.75;13.23;;;;;;;0.41;100.00;97617.78;5070872;28;20493;-67
2024/02/01 05:57:34;;;;;;;23.00;16.50;;;;;;;0.47;100.00;97618.56;5063299;28;20025;-67
2024/02/01 06:00:09;;;;;;;24.75;16.67;;;;;;;0.50;100.00;97603.78;5067920;28;20025;-67
2024/02/01 06:02:35;;;;;;;34.70;21.80;;;;;;;0.53;100.00;97603.72;5062770;28;20037;-67
2024/02/01 06:05:01;;;;;;;25.40;15.57;;;;;;;0.60;100.00;97608.78;5071495;28;20035;-67
2024/02/01 06:07:26;;;;;;;14.98;9.68;;;;;;;0.57;100.00;97613.16;5067113;28;20024;-67
2024/02/01 06:09:52;;;;;;;16.73;9.65;;;;;;;0.60;100.00;97613.97;5067397;28;20478;-67
2024/02/01 06:12:17;;;;;;;9.10;7.82;;;;;;;0.80;100.00;97611.78;5067011;28;20027;-67
2024/02/01 06:14:42;;;;;;;12.13;7.65;;;;;;;0.91;100.00;97619.31;5072944;28;20023;-67
2024/02/01 06:17:08;;;;;;;17.90;8.43;;;;;;;0.87;100.00;97624.59;5064763;28;20528;-68
2024/02/01 06:19:33;;;;;;;12.77;8.90;;;;;;;0.91;100.00;97631.44;5066479;28;20029;-67
2024/02/01 06:21:59;;;;;;;10.77;8.85;;;;;;;0.93;100.00;97640.91;5071367;28;20024;-67
2024/02/01 06:24:26;;;;;;;9.20;7.35;;;;;;;1.04;100.00;97645.84;5069298;28;20024;-67
2024/02/01 06:26:52;;;;;;;12.88;8.10;;;;;;;0.98;100.00;97648.56;5056870;28;20078;-67
2024/02/01 06:29:18;;;;;;;12.00;8.82;;;;;;;0.94;100.00;97644.31;5063837;28;20025;-67
2024/02/01 06:31:43;;;;;;;13.75;10.05;;;;;;;0.84;100.00;97660.09;5070240;28;20397;-67
2024/02/01 06:34:12;;;;;;;14.25;10.93;;;;;;;0.76;100.00;97658.56;5060662;28;20109;-67
2024/02/01 06:36:40;;;;;;;18.38;9.50;;;;;;;0.69;100.00;97655.22;5070578;28;20028;-67
2024/02/01 06:39:16;;;;;;;19.63;12.95;;;;;;;0.68;100.00;97656.13;5071145;28;20534;-67
2024/02/01 06:42:02;;;;;;;21.55;14.13;;;;;;;0.68;100.00;97645.75;5070399;28;20432;-67
2024/02/01 06:44:28;;;;;;;18.20;10.73;;;;;;;0.67;100.00;97652.69;5073020;28;20158;-67
2024/02/01 06:55:06;;;;;;;13.88;9.93;;;;;;;0.58;100.00;97606.22;5072018;28;20074;-67
2024/02/01 06:57:53;;;;;;;13.45;9.93;;;;;;;0.57;100.00;97613.16;5064624;28;20024;-68
2024/02/01 07:16:35;;;;;;;12.90;9.85;;;;;;;0.41;100.00;97596.22;5068122;28;20032;-65
2024/02/01 07:19:12;;;;;;;13.18;9.35;;;;;;;0.37;100.00;97595.41;5071074;28;20477;-67
2024/02/01 07:22:00;;;;;;;14.18;9.32;;;;;;;0.39;100.00;97603.16;5072254;28;20024;-68
2024/02/01 08:00:45;;;;;;;26.50;22.48;;;;;;;1.22;100.00;97607.38;5060802;28;20528;-67
2024/02/01 08:08:37;;;;;;;25.00;19.35;;;;;;;1.54;100.00;97629.94;5067645;28;20042;-67
2024/02/01 08:11:04;;;;;;;27.05;17.98;;;;;;;1.64;100.00;97638.34;5063296;28;20080;-67
2024/02/01 08:13:31;;;;;;;20.08;13.13;;;;;;;1.68;100.00;97634.78;5066634;28;20039;-67
2024/02/01 08:15:57;;;;;;;12.30;10.60;;;;;;;1.81;100.00;97629.25;5071386;28;20115;-67
2024/02/01 08:18:26;;;;;;;18.35;13.07;;;;;;;1.86;100.00;97641.25;5063561;28;20023;-67
2024/02/01 08:20:53;;;;;;;16.17;13.45;;;;;;;1.94;100.00;97641.06;5068289;28;20108;-67
2024/02/01 08:23:19;;;;;;;13.00;10.68;;;;;;;2.04;100.00;97640.78;5066417;28;20463;-67
2024/02/01 08:25:48;;;;;;;14.20;10.52;;;;;;;2.08;100.00;97661.47;5065463;28;20111;-68
2024/02/01 08:28:15;;;;;;;16.52;10.60;;;;;;;2.11;100.00;97673.53;5069136;28;20070;-67
2024/02/01 08:30:42;;;;;;;25.52;17.83;;;;;;;2.16;100.00;97671.66;5075287;28;20069;-67
2024/02/01 08:33:15;;;;;;;22.48;17.85;;;;;;;2.13;100.00;97669.97;5062551;28;20091;-67
2024/02/01 08:35:41;;;;;;;16.88;13.60;;;;;;;2.19;100.00;97661.19;5063595;28;20123;-68
2024/02/01 08:38:08;;;;;;;18.27;12.98;;;;;;;2.23;100.00;97657.59;5071604;28;20029;-67
2024/02/01 08:40:34;;;;;;;15.05;12.60;;;;;;;2.27;100.00;97664.41;5063828;28;20554;-68
2024/02/01 08:42:59;;;;;;;15.30;13.10;;;;;;;2.35;100.00;97666.81;5067341;28;20036;-67
2024/02/01 08:45:29;;;;;;;16.95;13.15;;;;;;;2.39;100.00;97671.03;5072763;28;20035;-68
2024/02/01 08:48:02;;;;;;;18.45;15.90;;;;;;;2.44;100.00;97670.91;5070323;28;20557;-68
2024/02/01 08:50:33;;;;;;;28.95;22.35;;;;;;;2.49;100.00;97668.19;5070143;28;20028;-68
2024/02/01 08:52:59;;;;;;;25.08;20.10;;;;;;;2.56;100.00;97669.69;5056636;28;20058;-68
2024/02/01 08:55:25;;;;;;;21.10;16.50;;;;;;;2.62;100.00;97676.47;5061050;28;20115;-67
2024/02/01 08:57:50;;;;;;;30.98;20.35;;;;;;;2.63;100.00;97679.03;5064020;28;20452;-67
2024/02/01 09:00:25;;;;;;;28.83;22.90;;;;;;;2.69;100.00;97672.81;5068554;28;20039;-68
2024/02/01 09:03:11;;;;;;;30.55;19.73;;;;;;;2.76;100.00;97657.88;5070872;28;20064;-67
2024/02/01 09:05:40;;;;;;;31.38;20.27;;;;;;;2.85;100.00;97655.84;5064208;28;20029;-68
2024/02/01 09:08:12;;;;;;;35.38;24.67;;;;;;;2.94;100.00;97654.72;5073114;28;20017;-67
2024/02/01 09:10:39;;;;;;;31.02;23.27;;;;;;;2.98;100.00;97640.72;5072583;28;20078;-68
2024/02/01 09:13:04;;;;;;;28.75;22.08;;;;;;;3.02;100.00;97628.47;5058440;28;20126;-67
2024/02/01 09:15:35;;;;;;;29.00;15.35;;;;;;;3.05;100.00;97625.78;5064202;28;20115;-68
2024/02/01 09:18:01;;;;;;;17.33;11.95;;;;;;;3.14;100.00;97616.81;5066916;28;20035;-67
2024/02/01 09:20:26;;;;;;;18.50;13.70;;;;;;;3.23;100.00;97605.28;5065481;28;20031;-67
2024/02/01 09:22:53;;;;;;;22.13;15.50;;;;;;;3.30;100.00;97614.56;5062964;28;20037;-67
2024/02/01 09:25:21;;;;;;;19.77;14.73;;;;;;;3.33;100.00;97614.47;5061716;28;20020;-68
2024/02/01 09:27:50;;;;;;;20.52;14.18;;;;;;;3.38;100.00;97609.97;5060151;28;20041;-68
2024/02/01 09:30:20;;;;;;;21.33;16.27;;;;;;;3.42;100.00;97610.72;5059284;28;20036;-67
2024/02/01 09:32:49;;;;;;;16.23;14.15;;;;;;;3.46;100.00;97621.91;5061661;28;20067;-68
2024/02/01 09:35:16;;;;;;;22.33;13.10;;;;;;;3.52;100.00;97625.13;5064783;28;20562;-68
2024/02/01 09:37:42;;;;;;;23.02;13.70;;;;;;;3.57;100.00;97628.47;5068767;28;20040;-67
2024/02/01 09:40:10;;;;;;;17.15;12.85;;;;;;;3.64;100.00;97633.47;5067856;28;20033;-68
2024/02/01 09:42:37;;;;;;;19.50;11.52;;;;;;;3.71;100.00;97641.03;5075580;28;20062;-68
2024/02/01 09:45:05;;;;;;;24.90;14.52;;;;;;;3.78;100.00;97640.81;5059266;28;20028;-68
2024/02/01 09:47:41;;;;;;;25.05;16.15;;;;;;;3.80;100.00;97655.50;5068935;28;20032;-68
2024/02/01 09:50:08;;;;;;;23.30;16.33;;;;;;;3.80;100.00;97668.53;5070123;28;20107;-68
2024/02/01 09:52:39;;;;;;;36.67;25.65;;;;;;;3.81;100.00;97671.97;5060194;28;20025;-68
2024/02/01 09:55:07;;;;;;;30.75;21.42;;;;;;;3.96;100.00;97676.66;5065011;28;21165;-67
2024/02/01 09:57:40;;;;;;;31.98;16.90;;;;;;;3.94;100.00;97683.69;5065748;28;20029;-68
2024/02/01 10:00:15;;;;;;;21.50;15.85;;;;;;;3.97;100.00;97707.03;5061350;28;20040;-67
2024/02/01 10:02:46;;;;;;;21.20;19.10;;;;;;;3.96;100.00;97718.38;5059772;28;20490;-68
2024/02/01 10:05:12;;;;;;;25.38;18.90;;;;;;;3.90;100.00;97702.94;5062063;28;20063;-68
2024/02/01 10:07:37;;;;;;;19.98;14.27;;;;;;;4.06;100.00;97702.41;5064611;28;20037;-68
2024/02/01 10:10:05;;;;;;;18.60;14.30;;;;;;;3.95;100.00;97697.56;5067541;28;20060;-68
2024/02/01 10:12:31;;;;;;;23.15;15.07;;;;;;;3.99;100.00;97688.75;5067174;28;20028;-68
2024/02/01 10:14:57;;;;;;;23.80;15.27;;;;;;;3.96;100.00;97697.53;5067380;28;20818;-68
2024/02/01 10:17:23;;;;;;;19.52;15.45;;;;;;;3.94;100.00;97704.53;5071893;28;20529;-68
2024/02/01 10:19:49;;;;;;;31.30;27.92;;;;;;;3.93;100.00;97692.41;5065992;28;20029;-67
2024/02/01 10:22:15;;;;;;;27.80;19.10;;;;;;;4.03;100.00;97679.94;5076060;28;20409;-68
2024/02/01 10:24:45;;;;;;;25.65;16.02;;;;;;;4.05;100.00;97685.94;5067662;28;20044;-68
2024/02/01 10:27:14;;;;;;;22.15;15.52;;;;;;;4.08;100.00;97685.81;5065056;28;20747;-67
2024/02/01 10:29:40;;;;;;;20.67;16.05;;;;;;;4.09;100.00;97687.53;5068747;28;20031;-68
2024/02/01 10:32:14;;;;;;;19.55;14.00;;;;;;;4.15;100.00;97679.47;5074173;28;20033;-68
2024/02/01 10:34:51;;;;;;;21.77;15.27;;;;;;;4.27;100.00;97679.97;5070060;28;20035;-68
2024/02/01 10:37:23;;;;;;;23.95;14.05;;;;;;;4.41;100.00;97669.06;5064187;28;20452;-68
2024/02/01 10:40:10;;;;;;;31.73;26.33;;;;;;;4.64;100.00;97662.16;5068264;28;20025;-68
2024/02/01 10:42:38;;;;;;;24.95;20.55;;;;;;;4.78;100.00;97652.06;5069027;28;20045;-68
2024/02/01 10:45:09;;;;;;;34.85;31.50;;;;;;;4.93;100.00;97642.78;5073124;28;20028;-68
2024/02/01 10:47:42;;;;;;;33.22;29.92;;;;;;;5.08;100.00;97641.34;5067533;28;20100;-67
2024/02/01 10:50:09;;;;;;;26.13;23.35;;;;;;;5.25;100.00;97627.59;5069308;28;20029;-68
2024/02/01 10:52:36;;;;;;;21.20;14.65;;;;;;;5.39;100.00;97621.00;5075255;28;20032;-68
2024/02/01 10:55:09;;;;;;;19.10;13.60;;;;;;;5.59;100.00;97620.16;5064265;28;20033;-68
2024/02/01 10:57:37;;;;;;;16.35;14.55;;;;;;;5.77;100.00;97613.34;5073948;28;20433;-68
2024/02/01 11:00:03;;;;;;;27.30;15.93;;;;;;;5.89;100.00;97598.88;5067660;28;20075;-68
2024/02/01 11:02:30;;;;;;;48.08;29.52;;;;;;;6.11;100.00;97595.38;5064792;28;20389;-68
2024/02/01 11:04:55;;;;;;;59.03;30.50;;;;;;;6.29;100.00;97589.31;5075316;28;20032;-68
2024/02/01 11:07:24;;;;;;;42.30;25.90;;;;;;;6.48;100.00;97570.16;5071324;28;20017;-68
2024/02/01 11:09:51;;;;;;;47.53;29.45;;;;;;;6.61;100.00;97577.47;5074256;28;20489;-68
2024/02/01 11:12:22;;;;;;;38.70;26.95;;;;;;;6.70;100.00;97588.34;5066418;28;20036;-68
2024/02/01 11:14:49;;;;;;;28.98;19.08;;;;;;;6.80;100.00;97591.41;5069430;28;20036;-68
2024/02/01 11:17:20;;;;;;;17.00;13.45;;;;;;;6.58;100.00;97591.53;5068869;28;20201;-68
2024/02/01 11:19:50;;;;;;;18.08;15.07;;;;;;;6.49;100.00;97584.94;5072242;28;20478;-68
2024/02/01 11:22:18;;;;;;;23.95;20.70;;;;;;;6.47;100.00;97591.19;5075353;28;20107;-68
2024/02/01 11:24:43;;;;;;;20.20;18.00;;;;;;;6.63;100.00;97592.19;5068487;28;20028;-68
2024/02/01 11:27:24;;;;;;;27.38;15.35;;;;;;;6.68;100.00;97589.34;5067907;28;20369;-69
2024/02/01 11:29:55;;;;;;;21.67;15.05;;;;;;;6.75;100.00;97580.31;5062503;28;20060;-67
2024/02/01 11:32:21;;;;;;;15.77;12.50;;;;;;;6.98;100.00;97575.75;5074769;28;20025;-65
2024/02/01 11:34:54;;;;;;;13.15;11.13;;;;;;;7.22;100.00;97578.94;5074024;28;20039;-66
2024/02/01 11:37:20;;;;;;;14.40;10.27;;;;;;;7.28;100.00;97568.16;5073702;28;20032;-66
2024/02/01 11:39:46;;;;;;;13.95;9.82;;;;;;;7.36;100.00;97553.84;5072466;28;20108;-67
2024/02/01 11:42:12;;;;;;;17.25;11.80;;;;;;;7.36;100.00;97549.44;5065039;28;20044;-66
2024/02/01 11:44:40;;;;;;;18.55;11.60;;;;;;;7.50;100.00;97555.78;5071353;28;20033;-66
2024/02/01 11:47:06;;;;;;;15.38;12.38;;;;;;;7.72;100.00;97556.38;5063335;28;20029;-66
2024/02/01 11:49:36;;;;;;;17.17;12.07;;;;;;;7.83;100.00;97555.84;5072818;28;20028;-67
2024/02/01 11:52:13;;;;;;;14.25;10.68;;;;;;;7.69;100.00;97548.69;5068701;28;20524;-67
2024/02/01 11:54:46;;;;;;;16.83;11.77;;;;;;;7.57;100.00;97546.66;5068523;28;20033;-67
2024/02/01 11:57:22;;;;;;;16.75;11.23;;;;;;;7.51;100.00;97539.13;5064210;28;20037;-67
2024/02/01 11:59:48;;;;;;;11.05;9.45;;;;;;;7.66;100.00;97543.59;5066472;28;20029;-66
2024/02/01 12:02:17;;;;;;;15.15;10.60;;;;;;;7.77;100.00;97543.03;5071975;28;20039;-67
2024/02/01 12:04:45;;;;;;;16.15;11.02;;;;;;;7.89;100.00;97541.56;5059329;28;20484;-67
2024/02/01 12:07:17;;;;;;;15.90;12.52;;;;;;;7.97;100.00;97530.66;5066369;28;20040;-67
2024/02/01 12:09:45;;;;;;;15.18;11.73;;;;;;;8.12;100.00;97531.63;5066843;28;20032;-67
2024/02/01 12:12:13;;;;;;;22.13;13.23;;;;;;;8.15;100.00;97521.81;5062588;28;20021;-67
2024/02/01 12:14:41;;;;;;;21.15;14.23;;;;;;;8.35;100.00;97517.25;5057870;28;20028;-67
2024/02/01 12:17:06;;;;;;;16.90;13.05;;;;;;;8.50;100.00;97512.97;5072428;28;20032;-67
2024/02/01 12:19:37;;;;;;;17.05;11.63;;;;;;;8.59;100.00;97503.75;5066694;28;20553;-67
2024/02/01 12:22:15;;;;;;;18.70;12.18;;;;;;;8.70;100.00;97496.13;5066104;28;20476;-67
2024/02/01 12:24:42;;;;;;;16.85;13.15;;;;;;;8.77;100.00;97490.53;5069803;28;20676;-67
2024/02/01 12:27:08;;;;;;;18.95;13.30;;;;;;;8.76;100.00;97468.69;5064767;28;20059;-66